Tiempo atmosférico en la estación meteorológica de Azuaga, Badajoz (550 m.)



Fecha
DESCASC
Temp. máxima en grados centígrados (hora)
DESCASC
Temp. mínima en grados centígrados (hora)
DESCASC
Temp. media en grados centígrados
DESCASC
Racha de viento máxima en m/sg (hora)
DESCASC
Velocidad máxima media en intervalos de 10 minutos(hora)
DESCASC
Precipitaciones diarias en mm
DESCASC
Precipitaciones de 00:00 a 06:00 en mm
DESCASC
Precipitaciones de 06:00 a 12:00 en mm
DESCASC
Precipitaciones de 12:00 a 18:00 en mm
DESCASC
Precipitaciones de 18:00 a 24:00 en mm
DESCASC
08-12-2019 15 (14:10) 5 (08:40) 10 6.39 (16:00) 4.44 (16:00) 0.6 0 0 0 0.6
07-12-2019 15.6 (14:50) 3.7 (06:40) 9.7 4.72 (17:00) 2.78 (16:20) 0 0 0 0 0
06-12-2019 14.5 (14:40) 3.9 (08:50) 9.2 5.83 (15:50) 3.61 (15:10) 0 0 0 0 0
05-12-2019 11.9 (12:30) 5.6 (00:00) 8.7 11.67 (14:50) 7.22 (15:00) 0 0 0 0 0
04-12-2019 11.7 (15:20) 6.8 (00:00) 9.3 5.28 (16:00) 3.33 (16:00) 0 0 0 0 0
03-12-2019 12.7 (14:50) 5.7 (00:00) 9.2 10 (12:30) 6.11 (12:20) 0 0 0 0 0
02-12-2019 11.9 (14:40) 6.8 (00:00) 9.3 12.78 (13:40) 7.5 (12:10) 1.6 1.6 0 0 0
01-12-2019 12.6 (16:20) 6.7 (00:00) 9.7 8.89 (14:10) 5.56 (14:20) 6 0 0.4 1 4.6
30-11-2019 15.4 (11:50) 8.1 (00:00) 11.8 9.44 (22:20) 6.11 (23:30) 1.6 0 0 0 1.6
29-11-2019 16 (13:50) 7.9 (00:00) 12 6.11 (15:10) 3.61 (15:10) 0 0 0 0 0
28-11-2019 15.1 (15:10) 8.2 (00:00) 11.7 6.94 (14:00) 5 (14:00) 0 0 0 0 0
27-11-2019 14.4 (14:00) 8.9 (00:00) 11.6 10.56 (12:20) 7.22 (14:10) 0 0 0 0 0
26-11-2019 15.6 (15:10) 10.1 (00:00) 12.9 8.89 (19:20) 5.83 (14:20) 0.4 0 0 0 0.4
25-11-2019 15.6 (15:10) 9.6 (00:00) 12.6 12.78 (14:50) 8.61 (14:50) 0.6 0 0.6 0 0
24-11-2019 12.3 (15:20) 4.7 (00:00) 8.5 8.89 (01:00) 6.11 (07:40) 0 0 0 0 0
23-11-2019 11.6 (15:40) 6 (00:00) 8.8 19.72 (03:10) 11.94 (11:20) 0.6 0.4 0.2 0 0
22-11-2019 14.3 (16:40) 9.3 (00:00) 11.8 17.78 (16:40) 12.22 (17:10) 18.4 0 3 15.4 0
21-11-2019 11.5 (16:10) 7.2 (00:00) 9.3 4.72 (11:10) 3.06 (06:00) 5.4 0 2.6 2.8 0
20-11-2019 8.2 (17:30) 4.7 (00:00) 6.4 6.67 (12:40) 3.89 (12:40) 6.8 0 6 0.6 0.2
19-11-2019 12.2 (14:40) 3.7 (00:00) 7.9 4.17 (13:40) 2.22 (15:00) 0 0 0 0 0
18-11-2019 12.1 (16:10) 3.4 (00:00) 7.8 12.78 (00:10) 8.33 (01:50) 5.6 5.6 0 0 0
17-11-2019 11.7 (15:50) 2.3 (00:00) 7 12.5 (23:59) 8.33 (20:00) 9.2 0 0.8 0.8 7.6
16-11-2019 10.9 (15:10) -0.7 (-00:0) 5.1 9.17 (17:30) 6.11 (17:30) 0 0 0 0 0
15-11-2019 9 (16:00) 1.8 (00:00) 5.4 14.72 (04:40) 9.72 (05:00) 0 0 0 0 0
14-11-2019 10.7 (15:10) 5.6 (00:00) 8.1 18.89 (11:20) 12.5 (11:30) 2 0 2 0 0
13-11-2019 17.8 (15:20) 9 (00:00) 13.4 13.89 (05:10) 9.72 (05:00) 0.2 0.2 0 0 0
12-11-2019 14.5 (16:00) 6.1 (00:00) 10.3 11.39 (17:10) 7.5 (17:10) 0 0 0 0 0
11-11-2019 15.1 (17:10) 7.8 (03:00) 11.5 10.83 (15:10) 8.06 (16:40) 0 0 0 0 0
10-11-2019 13.1 (13:50) 6 (00:00) 9.6 17.78 (15:30) 13.61 (15:30) 0 0 0 0 0

Gráficas

Temp. máximas Temp. mínimas Temp. medias Precipitaciones Rachas de viento máximas Velocidades máximas media en intervalos de 10 minutos

Datos horarios

Fecha y hora oficial Temperatura (ºC) Velocidad del viento (km/h) Dirección del viento Racha (km/h) Dirección de racha Precipitación (mm) Presión (hPa) Tendencia (hPa) Humedad (%)
2019-12-09 23:00:00 7.4 3 Oeste 5 Norte 0 -- -- 96
2019-12-09 22:00:00 8.2 3 Noroeste 6 Norte 0 -- -- 95
2019-12-09 21:00:00 8.8 2 Noroeste 7 Oeste 0 -- -- 94
2019-12-09 20:00:00 9.5 2 Noroeste 6 Este 0 -- -- 92
2019-12-09 19:00:00 10.5 6 Este 14 Este 0 -- -- 89
2019-12-09 18:00:00 11.9 5 Este 10 Este 0 -- -- 83
2019-12-09 17:00:00 13.1 6 Nordeste 11 Nordeste 0 -- -- 78
2019-12-09 16:00:00 13.2 4 Noroeste 12 Noroeste 0 -- -- 78
2019-12-09 15:00:00 12.6 4 Oeste 9 Nordeste 0 -- -- 79
2019-12-09 14:00:00 11.8 3 Norte 11 Nordeste 0 -- -- 84
2019-12-09 13:00:00 11.4 3 Norte 11 Nordeste 0 -- -- 87
2019-12-09 12:00:00 11 5 Norte 12 Noroeste 0 -- -- 91
2019-12-09 11:00:00 10.6 6 Noroeste 14 Noroeste 0 -- -- 98
2019-12-09 10:00:00 10.4 7 Noroeste 10 Noroeste 0 -- -- 99
2019-12-09 09:00:00 10.4 6 Norte 11 Noroeste 0 -- -- 99
2019-12-09 08:00:00 10.4 8 Noroeste 15 Noroeste 0 -- -- 99
2019-12-09 07:00:00 10.7 11 Noroeste 16 Noroeste 0 -- -- 99
2019-12-09 06:00:00 11.3 7 Noroeste 15 Noroeste 0 -- -- 99
2019-12-09 05:00:00 11.3 6 Noroeste 9 Noroeste 0.2 -- -- 99
2019-12-09 04:00:00 11.3 6 Noroeste 14 Noroeste 0 -- -- 98
2019-12-09 03:00:00 11.1 5 Noroeste 10 Oeste 0 -- -- 98
2019-12-09 02:00:00 10.9 8 Noroeste 19 Noroeste 0 -- -- 98
2019-12-09 01:00:00 10.9 12 Noroeste 20 Noroeste 0 -- -- 98
2019-12-09 00:00:00 10.9 12 Noroeste 18 Noroeste 0 -- -- 98
2019-12-08 23:00:00 10.8 9 Noroeste 17 Noroeste 0 -- -- 98
2019-12-08 22:00:00 10.8 13 Noroeste 21 Noroeste 0 -- -- 97
2019-12-08 21:00:00 11 9 Noroeste 15 Noroeste 0 -- -- 96
2019-12-08 20:00:00 11 8 Noroeste 12 Oeste 0.6 -- -- 95
2019-12-08 19:00:00 11.2 9 Noroeste 19 Noroeste 0 -- -- 93
2019-12-08 18:00:00 11.6 14 Noroeste 22 Noroeste 0 -- -- 86
2019-12-08 17:00:00 13.2 14 Noroeste 22 Noroeste 0 -- -- 70
2019-12-08 16:00:00 14.5 16 Noroeste 23 Noroeste 0 -- -- 66
2019-12-08 15:00:00 14.4 9 Oeste 17 Noroeste 0 -- -- 62
2019-12-08 14:00:00 14.8 8 Oeste 14 Oeste 0 -- -- 63
2019-12-08 13:00:00 13.5 6 Noroeste 12 Oeste 0 -- -- 73
2019-12-08 12:00:00 12.5 3 Sur 6 Sudeste 0 -- -- 80
2019-12-08 11:00:00 10.6 2 Sur 6 Noroeste 0 -- -- 84
2019-12-08 10:00:00 7.5 4 Oeste 6 Oeste 0 -- -- 94
2019-12-08 09:00:00 5.1 4 Oeste 6 Noroeste 0 -- -- 97
2019-12-08 08:00:00 5.8 2 Oeste 5 Noroeste 0 -- -- 97
2019-12-08 07:00:00 5.4 3 Oeste 9 Oeste 0 -- -- 96
2019-12-08 06:00:00 5.3 5 Oeste 8 Noroeste 0 -- -- 96
2019-12-08 05:00:00 6.5 3 Oeste 5 Noroeste 0 -- -- 96
2019-12-08 04:00:00 6.1 3 Oeste 6 Oeste 0 -- -- 97
2019-12-08 03:00:00 5.8 5 Oeste 10 Oeste 0 -- -- 96
2019-12-08 02:00:00 6.3 8 Oeste 10 Oeste 0 -- -- 96
2019-12-08 01:00:00 6.7 4 Oeste 6 Oeste 0 -- -- 95
2019-12-08 00:00:00 7.3 3 Oeste 6 Oeste 0 -- -- 95
2019-12-07 23:00:00 7.2 4 Oeste 6 Oeste 0 -- -- 93
2019-12-07 22:00:00 7.6 0 Calma 6 Oeste 0 -- -- 94
2019-12-07 21:00:00 8 2 Norte 4 Noroeste 0 -- -- 90
2019-12-07 20:00:00 9.6 3 Nordeste 5 Este 0 -- -- 85
2019-12-07 19:00:00 10.7 2 Norte 9 Nordeste 0 -- -- 79
2019-12-07 18:00:00 12.4 5 Norte 15 Norte 0 -- -- 76
2019-12-07 17:00:00 14.5 10 Norte 17 Norte 0 -- -- 65
2019-12-07 16:00:00 15.3 8 Noroeste 13 Noroeste 0 -- -- 60
2019-12-07 15:00:00 15.4 6 Noroeste 11 Noroeste 0 -- -- 60
2019-12-07 14:00:00 14.8 5 Noroeste 8 Noroeste 0 -- -- 66
2019-12-07 13:00:00 14.1 3 Sudoeste 7 Sudeste 0 -- -- 69
2019-12-07 12:00:00 11.8 3 Este 8 Nordeste 0 -- -- 79
2019-12-07 11:00:00 9.3 4 Nordeste 6 Este 0 -- -- 92
2019-12-07 10:00:00 6.1 0 Calma 7 Oeste 0 -- -- 97
2019-12-07 09:00:00 5.2 3 Noroeste 9 Nordeste 0 -- -- 97
2019-12-07 08:00:00 4.9 3 Norte 12 Nordeste 0 -- -- 98
2019-12-07 07:00:00 4.3 3 Norte 8 Noroeste 0 -- -- 97
2019-12-07 06:00:00 4.6 3 Noroeste 6 Oeste 0 -- -- 97
2019-12-07 05:00:00 4.1 4 Noroeste 6 Noroeste 0 -- -- 94
2019-12-07 04:00:00 6.4 6 Sudeste 9 Sudeste 0 -- -- 95
2019-12-07 03:00:00 5.9 4 Norte 8 Norte 0 -- -- 95
2019-12-07 02:00:00 5.8 4 Norte 8 Oeste 0 -- -- 93
2019-12-07 01:00:00 6.9 5 Nordeste 12 Nordeste 0 -- -- 93
2019-12-07 00:00:00 7.7 7 Norte 12 Norte 0 -- -- 89
2019-12-06 23:00:00 7.8 5 Norte 17 Nordeste 0 -- -- 86
2019-12-06 22:00:00 9.3 8 Nordeste 14 Este 0 -- -- 83
2019-12-06 21:00:00 9.4 8 Nordeste 19 Nordeste 0 -- -- 80
2019-12-06 20:00:00 10.2 8 Nordeste 16 Este 0 -- -- 77
2019-12-06 19:00:00 10.5 8 Nordeste 15 Nordeste 0 -- -- 76
2019-12-06 18:00:00 11.8 10 Nordeste 20 Nordeste 0 -- -- 72
2019-12-06 17:00:00 13.6 12 Nordeste 19 Nordeste 0 -- -- 66
2019-12-06 16:00:00 14.4 9 Nordeste 21 Nordeste 0 -- -- 62
2019-12-06 15:00:00 14.3 12 Nordeste 20 Nordeste 0 -- -- 67
2019-12-06 14:00:00 13.7 12 Nordeste 20 Norte 0 -- -- 67
2019-12-06 13:00:00 12.6 11 Nordeste 21 Nordeste 0 -- -- 70
2019-12-06 12:00:00 10.8 4 Norte 10 Este 0 -- -- 80
2019-12-06 11:00:00 8.6 5 Nordeste 10 Nordeste 0 -- -- 89
2019-12-06 10:00:00 6.7 6 Nordeste 11 Este 0 -- -- 94
2019-12-06 09:00:00 3.9 3 Norte 9 Nordeste 0 -- -- 97
2019-12-06 08:00:00 5 5 Nordeste 10 Nordeste 0 -- -- 97
2019-12-06 07:00:00 4.4 6 Norte 14 Nordeste 0 -- -- 96
2019-12-06 06:00:00 5.8 8 Nordeste 17 Nordeste 0 -- -- 93
2019-12-06 05:00:00 6.1 6 Este 17 Este 0 -- -- 91
2019-12-06 04:00:00 6 7 Este 12 Nordeste 0 -- -- 92
2019-12-06 03:00:00 6.6 9 Este 19 Nordeste 0 -- -- 92
2019-12-06 02:00:00 6.7 8 Nordeste 17 Nordeste 0 -- -- 92
2019-12-06 01:00:00 7 10 Nordeste 20 Nordeste 0 -- -- 92
2019-12-06 00:00:00 7.7 10 Este 18 Este 0 -- -- 90
2019-12-05 23:00:00 7.8 8 Nordeste 16 Este 0 -- -- 90
2019-12-05 22:00:00 8.4 8 Este 24 Este 0 -- -- 88
2019-12-05 21:00:00 8.3 11 Este 21 Este 0 -- -- 88
2019-12-05 20:00:00 9.2 8 Nordeste 18 Nordeste 0 -- -- 83
2019-12-05 19:00:00 10.3 8 Nordeste 24 Nordeste 0 -- -- 78
2019-12-05 18:00:00 10.8 12 Nordeste 26 Nordeste 0 -- -- 75
2019-12-05 17:00:00 11 13 Nordeste 31 Nordeste 0 -- -- 72
2019-12-05 16:00:00 11.1 14 Nordeste 40 Este 0 -- -- 72
2019-12-05 15:00:00 11.7 26 Este 42 Nordeste 0 -- -- 67
2019-12-05 14:00:00 11.5 17 Nordeste 36 Nordeste 0 -- -- 70
2019-12-05 13:00:00 11.7 16 Nordeste 33 Nordeste 0 -- -- 70
2019-12-05 12:00:00 11.3 15 Nordeste 30 Nordeste 0 -- -- 73
2019-12-05 11:00:00 10.1 12 Nordeste 26 Nordeste 0 -- -- 79
2019-12-05 10:00:00 7.7 6 Nordeste 16 Norte 0 -- -- 89
2019-12-05 09:00:00 5.8 3 Noroeste 10 Nordeste 0 -- -- 95
2019-12-05 08:00:00 6.2 6 Norte 15 Norte 0 -- -- 94
2019-12-05 07:00:00 6.7 11 Norte 17 Norte 0 -- -- 96
2019-12-05 06:00:00 6.5 4 Noroeste 16 Norte 0 -- -- 96
2019-12-05 05:00:00 7.2 6 Norte 13 Norte 0 -- -- 96
2019-12-05 04:00:00 7.4 8 Norte 13 Norte 0 -- -- 96
2019-12-05 03:00:00 8.1 5 Norte 11 Norte 0 -- -- 94
2019-12-05 02:00:00 8.2 5 Noroeste 9 Noroeste 0 -- -- 94
2019-12-05 01:00:00 8.2 2 Noroeste 5 Norte 0 -- -- 94
2019-12-05 00:00:00 8.2 3 Noroeste 7 Noroeste 0 -- -- 93
2019-12-04 23:00:00 8.4 4 Noroeste 7 Noroeste 0 -- -- 91
2019-12-04 22:00:00 8.5 4 Norte 6 Norte 0 -- -- 90
2019-12-04 21:00:00 8.3 4 Oeste 7 Oeste 0 -- -- 88
2019-12-04 20:00:00 8.1 5 Noroeste 10 Noroeste 0 -- -- 87
2019-12-04 19:00:00 8.5 5 Noroeste 8 Noroeste 0 -- -- 85
2019-12-04 18:00:00 9.4 5 Noroeste 17 Norte 0 -- -- 79
2019-12-04 17:00:00 10.8 12 Norte 18 Norte 0 -- -- 76
2019-12-04 16:00:00 10.8 12 Norte 19 Noroeste 0 -- -- 76
2019-12-04 15:00:00 10.9 8 Oeste 11 Noroeste 0 -- -- 74
2019-12-04 14:00:00 10.8 4 Noroeste 13 Noroeste 0 -- -- 74
2019-12-04 13:00:00 10.1 7 Noroeste 12 Noroeste 0 -- -- 81
2019-12-04 12:00:00 10.2 5 Noroeste 12 Sudoeste 0 -- -- 80
2019-12-04 11:00:00 8.7 7 Sudoeste 12 Sur 0 -- -- 86
2019-12-04 10:00:00 7.2 4 Este 8 Este 0 -- -- 89
2019-12-04 09:00:00 6.9 6 Este 11 Nordeste 0 -- -- 90
2019-12-04 08:00:00 6.8 4 Nordeste 10 Nordeste 0 -- -- 89
2019-12-04 07:00:00 6.9 4 Nordeste 12 Este 0 -- -- 90
2019-12-04 06:00:00 7.1 4 Nordeste 9 Nordeste 0 -- -- 92
2019-12-04 05:00:00 7.5 4 Nordeste 10 Nordeste 0 -- -- 91
2019-12-04 04:00:00 7.7 6 Nordeste 12 Nordeste 0 -- -- 90
2019-12-04 03:00:00 7.8 4 Nordeste 9 Este 0 -- -- 92
2019-12-04 02:00:00 7.8 5 Este 8 Nordeste 0 -- -- 92
2019-12-04 01:00:00 7.9 4 Nordeste 7 Nordeste 0 -- -- 90
2019-12-04 00:00:00 8.1 0 Calma 11 Nordeste 0 -- -- 90
2019-12-03 23:00:00 7.6 3 Noroeste 6 Noroeste 0 -- -- 92
2019-12-03 22:00:00 8.2 4 Norte 14 Nordeste 0 -- -- 89
2019-12-03 21:00:00 8.3 7 Norte 14 Norte 0 -- -- 90
2019-12-03 20:00:00 7.9 4 Norte 9 Norte 0 -- -- 88
2019-12-03 19:00:00 8.6 4 Norte 13 Nordeste 0 -- -- 85
2019-12-03 18:00:00 10 9 Norte 23 Nordeste 0 -- -- 80
2019-12-03 17:00:00 11.1 14 Nordeste 24 Nordeste 0 -- -- 74
2019-12-03 16:00:00 11.5 14 Nordeste 29 Norte 0 -- -- 72
2019-12-03 15:00:00 12.5 17 Nordeste 29 Nordeste 0 -- -- 70
2019-12-03 14:00:00 12 17 Nordeste 29 Nordeste 0 -- -- 73
2019-12-03 13:00:00 11.5 15 Nordeste 36 Nordeste 0 -- -- 74
2019-12-03 12:00:00 10.5 14 Nordeste 30 Este 0 -- -- 77
2019-12-03 11:00:00 9.2 15 Nordeste 30 Nordeste 0 -- -- 81
2019-12-03 10:00:00 8.1 9 Nordeste 17 Nordeste 0 -- -- 86
2019-12-03 09:00:00 5.7 6 Norte 17 Nordeste 0 -- -- 92
2019-12-03 08:00:00 5.7 9 Norte 19 Nordeste 0 -- -- 90
2019-12-03 07:00:00 6.1 5 Norte 14 Norte 0 -- -- 89
2019-12-03 06:00:00 6.1 6 Noroeste 26 Nordeste 0 -- -- 88
2019-12-03 05:00:00 7 9 Nordeste 27 Este 0 -- -- 85
2019-12-03 04:00:00 6.8 3 Este 18 Nordeste 0 -- -- 88
2019-12-03 03:00:00 7.2 8 Nordeste 16 Nordeste 0 -- -- 88
2019-12-03 02:00:00 7.4 5 Este 21 Este 0 -- -- 88
2019-12-03 01:00:00 7.9 8 Este 22 Este 0 -- -- 87
2019-12-03 00:00:00 8.2 10 Este 27 Este 0 -- -- 87
2019-12-02 23:00:00 8.3 17 Nordeste 33 Nordeste 0 -- -- 86
2019-12-02 22:00:00 8.5 11 Nordeste 29 Este 0 -- -- 86
2019-12-02 21:00:00 8.9 17 Nordeste 32 Nordeste 0 -- -- 86
2019-12-02 20:00:00 9.1 16 Nordeste 31 Nordeste 0 -- -- 85
2019-12-02 19:00:00 9.1 17 Nordeste 35 Nordeste 0 -- -- 84
2019-12-02 18:00:00 9.4 17 Nordeste 35 Nordeste 0 -- -- 82
2019-12-02 17:00:00 10.2 20 Nordeste 38 Nordeste 0 -- -- 79
2019-12-02 16:00:00 10.9 20 Nordeste 42 Nordeste 0 -- -- 75
2019-12-02 15:00:00 11.6 22 Nordeste 43 Nordeste 0 -- -- 73
2019-12-02 14:00:00 11.1 24 Nordeste 46 Este 0 -- -- 72
2019-12-02 13:00:00 10.9 22 Nordeste 42 Nordeste 0 -- -- 81
2019-12-02 12:00:00 10 23 Nordeste 39 Este 0 -- -- 84
2019-12-02 11:00:00 9 20 Nordeste 38 Nordeste 0 -- -- 89
2019-12-02 10:00:00 8 13 Este 28 Nordeste 0 -- -- 94
2019-12-02 09:00:00 7.3 10 Nordeste 24 Nordeste 0 -- -- 95
2019-12-02 08:00:00 7.3 10 Nordeste 21 Nordeste 0 -- -- 96
2019-12-02 07:00:00 7.1 10 Nordeste 21 Nordeste 0 -- -- 96
2019-12-02 06:00:00 6.8 10 Nordeste 21 Nordeste 0 -- -- 95
2019-12-02 05:00:00 7 6 Nordeste 15 Este 0 -- -- 95
2019-12-02 04:00:00 7.2 8 Este 17 Este 0.2 -- -- 96
2019-12-02 03:00:00 7.4 9 Este 16 Este 0 -- -- 95
2019-12-02 02:00:00 7.8 5 Nordeste 11 Nordeste 1.2 -- -- 97
2019-12-02 01:00:00 7.8 5 Nordeste 13 Este 0.2 -- -- 97
2019-12-02 00:00:00 7.9 6 Este 14 Este 0.6 -- -- 97
2019-12-01 23:00:00 8.4 7 Este 12 Este 2.6 -- -- 97
2019-12-01 22:00:00 8.4 5 Este 9 Este 0.6 -- -- 96
2019-12-01 21:00:00 8.8 3 Sudeste 6 Sur 0 -- -- 93
2019-12-01 20:00:00 9 3 Sur 10 Noroeste 0.2 -- -- 93
2019-12-01 19:00:00 9.2 8 Oeste 24 Oeste 0.6 -- -- 92
2019-12-01 18:00:00 10 14 Oeste 27 Oeste 0.8 -- -- 86
2019-12-01 17:00:00 12.1 15 Sudoeste 28 Sudoeste 0 -- -- 76
2019-12-01 16:00:00 12.3 16 Sudoeste 27 Sudoeste 0 -- -- 78
2019-12-01 15:00:00 10.7 16 Sudoeste 32 Sudoeste 0 -- -- 89
2019-12-01 14:00:00 10.8 16 Sudoeste 26 Sudoeste 0 -- -- 86
2019-12-01 13:00:00 10.6 17 Sudoeste 24 Sudoeste 0.2 -- -- 89
2019-12-01 12:00:00 10.1 15 Sudoeste 23 Sudoeste 0 -- -- 92
2019-12-01 11:00:00 8.8 9 Sur 15 Sudoeste 0.2 -- -- 97
2019-12-01 10:00:00 7.8 10 Sur 15 Sur 0.2 -- -- 97
2019-12-01 09:00:00 7.5 6 Sur 13 Sur 0 -- -- 96
2019-12-01 08:00:00 7.1 9 Sur 16 Sur 0 -- -- 95
2019-12-01 07:00:00 6.9 8 Sur 12 Sudoeste 0 -- -- 96
2019-12-01 06:00:00 7.2 6 Sudoeste 11 Oeste 0 -- -- 96
2019-12-01 05:00:00 7.2 9 Sudoeste 16 Oeste 0 -- -- 94
2019-12-01 04:00:00 8 13 Oeste 21 Oeste 0 -- -- 93
2019-12-01 03:00:00 8.6 12 Oeste 28 Oeste 0 -- -- 95
2019-12-01 02:00:00 9.2 11 Oeste 19 Oeste 0 -- -- 95
2019-12-01 01:00:00 9.5 13 Oeste 20 Oeste 0 -- -- 95
2019-12-01 00:00:00 9.8 12 Noroeste 33 Noroeste 0.4 -- -- 96
2019-11-30 23:00:00 10.5 15 Oeste 34 Noroeste 1.2 -- -- 96
2019-11-30 22:00:00 12 16 Sudoeste 24 Sudoeste 0 -- -- 91
2019-11-30 21:00:00 12.4 11 Sur 18 Sur 0 -- -- 83
2019-11-30 20:00:00 12.3 12 Sudoeste 16 Sudoeste 0 -- -- 82
2019-11-30 19:00:00 12.6 11 Sudoeste 15 Sudoeste 0 -- -- 80
2019-11-30 18:00:00 12.9 12 Sudoeste 24 Oeste 0 -- -- 77
2019-11-30 17:00:00 13.9 15 Oeste 24 Oeste 0 -- -- 76
2019-11-30 16:00:00 13.9 18 Oeste 26 Oeste 0 -- -- 77
2019-11-30 15:00:00 13.8 13 Oeste 21 Oeste 0 -- -- 80
2019-11-30 14:00:00 14.1 16 Oeste 25 Oeste 0 -- -- 79
2019-11-30 13:00:00 14.6 9 Oeste 19 Sudoeste 0 -- -- 77
2019-11-30 12:00:00 15.2 6 Sudoeste 12 Sur 0 -- -- 74
2019-11-30 11:00:00 13.8 4 Sudoeste 7 Sudoeste 0 -- -- 84
2019-11-30 10:00:00 11.6 4 Sudoeste 9 Sur 0 -- -- 91
2019-11-30 09:00:00 9.6 2 Sudoeste 9 Sur 0 -- -- 94
2019-11-30 08:00:00 10.1 3 Sur 5 Sudoeste 0 -- -- 94
2019-11-30 07:00:00 9.7 0 Calma 6 Noroeste 0 -- -- 95
2019-11-30 06:00:00 8.4 4 Oeste 6 Oeste 0 -- -- 95
2019-11-30 05:00:00 8.7 0 Calma 4 Sur 0 -- -- 92
2019-11-30 04:00:00 9.2 0 Calma 2 Este 0 -- -- 92
2019-11-30 03:00:00 9.7 0 Calma 4 Noroeste 0 -- -- 93
2019-11-30 02:00:00 9.2 3 Noroeste 7 Oeste 0 -- -- 94
2019-11-30 01:00:00 8.5 5 Oeste 6 Oeste 0 -- -- 90
2019-11-30 00:00:00 10.1 4 Sudeste 6 Este 0 -- -- 88
2019-11-29 23:00:00 10.6 3 Sudoeste 8 Sur 0 -- -- 85
2019-11-29 22:00:00 11.1 0 Calma 10 Sur 0 -- -- 84
2019-11-29 21:00:00 12.4 0 Calma 3 Noroeste 0 -- -- 78
2019-11-29 20:00:00 12.4 2 Noroeste 4 Oeste 0 -- -- 80
2019-11-29 19:00:00 12.8 3 Oeste 5 Noroeste 0 -- -- 79
2019-11-29 18:00:00 14 4 Oeste 9 Noroeste 0 -- -- 75
2019-11-29 17:00:00 15.6 6 Noroeste 14 Noroeste 0 -- -- 67
2019-11-29 16:00:00 15.7 9 Noroeste 22 Noroeste 0 -- -- 69
2019-11-29 15:00:00 15.6 10 Noroeste 19 Noroeste 0 -- -- 69
2019-11-29 14:00:00 15.8 9 Noroeste 19 Oeste 0 -- -- 68
2019-11-29 13:00:00 14.9 4 Noroeste 15 Noroeste 0 -- -- 72
2019-11-29 12:00:00 14.3 4 Oeste 8 Oeste 0 -- -- 82
2019-11-29 11:00:00 11.9 4 Sudeste 7 Este 0 -- -- 91
2019-11-29 10:00:00 10.9 2 Sudeste 5 Sur 0 -- -- 98
2019-11-29 09:00:00 8.3 2 Sur 10 Sudeste 0 -- -- 98
2019-11-29 08:00:00 8.8 4 Sudeste 8 Sudeste 0 -- -- 97
2019-11-29 07:00:00 9 5 Sudeste 8 Sudeste 0 -- -- 97
2019-11-29 06:00:00 8.9 4 Sur 9 Sudoeste 0 -- -- 96
2019-11-29 05:00:00 9.3 5 Sudoeste 8 Sudoeste 0 -- -- 96
2019-11-29 04:00:00 9.4 5 Sur 9 Sudeste 0 -- -- 96
2019-11-29 03:00:00 9.9 6 Sur 10 Sur 0 -- -- 95
2019-11-29 02:00:00 10.4 3 Este 10 Sur 0 -- -- 93
2019-11-29 01:00:00 10.9 6 Sudeste 11 Sudeste 0 -- -- 92
2019-11-29 00:00:00 11 9 Sudeste 13 Sudeste 0 -- -- 91
2019-11-28 23:00:00 10.7 9 Sur 13 Sudeste 0 -- -- 92
2019-11-28 22:00:00 11.1 8 Sudeste 16 Sudeste 0 -- -- 89
2019-11-28 21:00:00 12 9 Sudeste 12 Sudeste 0 -- -- 87
2019-11-28 20:00:00 12.4 8 Sudeste 13 Sudoeste 0 -- -- 85
2019-11-28 19:00:00 12.9 8 Sudoeste 17 Noroeste 0 -- -- 78
2019-11-28 18:00:00 13.5 9 Oeste 19 Noroeste 0 -- -- 78
2019-11-28 17:00:00 14.2 12 Noroeste 18 Noroeste 0 -- -- 74
2019-11-28 16:00:00 14.6 13 Oeste 22 Noroeste 0 -- -- 70
2019-11-28 15:00:00 14.8 11 Oeste 22 Noroeste 0 -- -- 70
2019-11-28 14:00:00 14.7 18 Oeste 25 Oeste 0 -- -- 70
2019-11-28 13:00:00 13.9 9 Sudoeste 16 Sudoeste 0 -- -- 74
2019-11-28 12:00:00 12.5 9 Oeste 16 Sudoeste 0 -- -- 79
2019-11-28 11:00:00 12 12 Sudoeste 18 Oeste 0 -- -- 82
2019-11-28 10:00:00 10.7 4 Oeste 8 Oeste 0 -- -- 90
2019-11-28 09:00:00 9.8 0 Calma 8 Sudoeste 0 -- -- 92
2019-11-28 08:00:00 10.2 7 Sur 10 Sur 0 -- -- 89
2019-11-28 07:00:00 10.1 6 Oeste 13 Oeste 0 -- -- 91
2019-11-28 06:00:00 10 10 Sudoeste 15 Sudoeste 0 -- -- 90
2019-11-28 05:00:00 8.9 3 Oeste 10 Sudoeste 0 -- -- 93
2019-11-28 04:00:00 8.2 0 Calma 11 Sudoeste 0 -- -- 93
2019-11-28 03:00:00 9.3 8 Sur 16 Sudoeste 0 -- -- 90
2019-11-28 02:00:00 9.8 11 Sudoeste 16 Sudoeste 0 -- -- 89
2019-11-28 01:00:00 9.2 13 Sudoeste 18 Sudoeste 0 -- -- 91
2019-11-28 00:00:00 9.4 15 Sudoeste 18 Sudoeste 0 -- -- 89
2019-11-27 23:00:00 9.3 11 Sudoeste 17 Sudoeste 0 -- -- 87
2019-11-27 22:00:00 9.9 12 Sudoeste 15 Oeste 0 -- -- 85
2019-11-27 21:00:00 10.5 12 Oeste 17 Sudoeste 0 -- -- 81
2019-11-27 20:00:00 10.8 13 Oeste 16 Oeste 0 -- -- 81
2019-11-27 19:00:00 12 10 Oeste 16 Oeste 0 -- -- 78
2019-11-27 18:00:00 12.7 10 Noroeste 22 Oeste 0 -- -- 76
2019-11-27 17:00:00 13.9 14 Oeste 31 Noroeste 0 -- -- 68
2019-11-27 16:00:00 14.2 23 Oeste 35 Oeste 0 -- -- 70
2019-11-27 15:00:00 14.1 22 Oeste 38 Oeste 0 -- -- 67
2019-11-27 14:00:00 14.4 24 Oeste 36 Oeste 0 -- -- 69
2019-11-27 06:00:00 11.1 15 Oeste 26 Oeste 0 -- -- 92
2019-11-27 05:00:00 11.8 19 Oeste 34 Oeste 0 -- -- 94
2019-11-27 04:00:00 11.4 21 Oeste 30 Oeste 0 -- -- 94
2019-11-27 03:00:00 10.9 17 Oeste 22 Oeste 0 -- -- 92
2019-11-27 02:00:00 10.9 10 Oeste 18 Oeste 0 -- -- 92
2019-11-27 01:00:00 11.8 13 Oeste 32 Sudoeste 0 -- -- 90
2019-11-27 00:00:00 12.5 19 Oeste 29 Oeste 0 -- -- 89
2019-11-26 23:00:00 13.3 17 Sudoeste 26 Sudoeste 0 -- -- 94
2019-11-26 22:00:00 13.2 14 Sudoeste 29 Sudoeste 0 -- -- 95
2019-11-26 21:00:00 13.5 18 Sudoeste 31 Sudoeste 0.4 -- -- 91
2019-11-26 20:00:00 14.1 17 Sudoeste 32 Sudoeste 0 -- -- 87
2019-11-26 19:00:00 14.2 15 Sudoeste 27 Sudoeste 0 -- -- 87
2019-11-26 18:00:00 14.1 12 Sur 28 Sudoeste 0 -- -- 86
2019-11-26 17:00:00 14.7 20 Sudoeste 30 Sudoeste 0 -- -- 83
2019-11-26 16:00:00 15 16 Sudoeste 28 Sudoeste 0 -- -- 83
2019-11-26 15:00:00 15.1 14 Sudoeste 30 Sudoeste 0 -- -- 86
2019-11-26 14:00:00 14.4 16 Sudoeste 24 Sur 0 -- -- 90
2019-11-26 13:00:00 13.8 12 Sur 19 Sur 0 -- -- 96
2019-11-26 12:00:00 13.1 11 Sur 16 Sur 0 -- -- 97
2019-11-26 11:00:00 12 9 Sudeste 16 Sudeste 0 -- -- 96
2019-11-26 10:00:00 11.3 9 Sudeste 15 Sur 0 -- -- 96
2019-11-26 09:00:00 10.9 9 Sudeste 13 Sur 0 -- -- 94
2019-11-26 08:00:00 11 10 Sur 13 Sur 0 -- -- 94
2019-11-26 07:00:00 10.9 8 Sur 13 Sur 0 -- -- 94
2019-11-26 06:00:00 10.8 9 Sur 12 Sur 0 -- -- 94
2019-11-26 05:00:00 10.7 6 Sur 10 Sur 0 -- -- 95
2019-11-26 04:00:00 10.6 6 Sudoeste 13 Sudoeste 0 -- -- 93
2019-11-26 03:00:00 10.2 11 Sudoeste 14 Sudoeste 0 -- -- 95
2019-11-26 02:00:00 10.7 3 Oeste 17 Oeste 0 -- -- 94
2019-11-26 01:00:00 11.5 10 Oeste 16 Oeste 0 -- -- 93
2019-11-26 00:00:00 12.1 8 Oeste 18 Oeste 0 -- -- 93
2019-11-25 23:00:00 12.8 15 Oeste 20 Oeste 0 -- -- 92
2019-11-25 22:00:00 12.5 8 Oeste 17 Sudoeste 0 -- -- 93
2019-11-25 21:00:00 12.5 12 Oeste 20 Oeste 0 -- -- 90
2019-11-25 20:00:00 13.1 14 Oeste 19 Oeste 0 -- -- 88
2019-11-25 19:00:00 13.5 10 Sudoeste 17 Oeste 0 -- -- 89
2019-11-25 18:00:00 14.1 8 Oeste 21 Oeste 0 -- -- 85
2019-11-25 17:00:00 15.5 17 Oeste 33 Oeste 0 -- -- 79
2019-11-25 16:00:00 15.5 19 Oeste 42 Oeste 0 -- -- 83
2019-11-25 15:00:00 15.5 28 Oeste 46 Oeste 0 -- -- 83
2019-11-25 14:00:00 14.6 15 Sudoeste 32 Sudoeste 0 -- -- 93
2019-11-25 13:00:00 14.7 15 Oeste 24 Sudoeste 0 -- -- 91
2019-11-25 12:00:00 13.6 19 Sudoeste 28 Sudoeste 0 -- -- 92
2019-11-25 11:00:00 12.7 18 Sudoeste 26 Sudoeste 0 -- -- 94
2019-11-25 10:00:00 12.3 15 Sur 22 Sudoeste 0 -- -- 95
2019-11-25 09:00:00 11.5 15 Sur 24 Sudoeste 0 -- -- 96
2019-11-25 08:00:00 11.3 14 Sur 23 Sur 0.6 -- -- 96
2019-11-25 07:00:00 11.1 12 Sur 18 Sur 0 -- -- 95
2019-11-25 06:00:00 10.5 9 Sur 13 Sudeste 0 -- -- 94
2019-11-25 05:00:00 10.6 10 Sur 16 Sur 0 -- -- 90
2019-11-25 04:00:00 10.9 12 Sur 19 Sur 0 -- -- 90
2019-11-25 03:00:00 10.6 12 Sur 21 Sur 0 -- -- 91
2019-11-25 02:00:00 10.2 10 Sur 15 Sudeste 0 -- -- 87
2019-11-25 01:00:00 9.8 8 Sudeste 13 Sudeste 0 -- -- 85
2019-11-25 00:00:00 9.7 8 Sur 12 Sudeste 0 -- -- 83
2019-11-24 23:00:00 9.5 10 Sur 17 Sur 0 -- -- 83
2019-11-24 22:00:00 9.6 6 Sur 13 Sudoeste 0 -- -- 84
2019-11-24 21:00:00 10.3 10 Sudoeste 14 Oeste 0 -- -- 82
2019-11-24 20:00:00 10.4 7 Oeste 11 Oeste 0 -- -- 82
2019-11-24 19:00:00 10.9 6 Oeste 18 Noroeste 0 -- -- 81
2019-11-24 18:00:00 11.5 11 Oeste 21 Oeste 0 -- -- 77
2019-11-24 17:00:00 11.6 11 Oeste 26 Oeste 0 -- -- 75
2019-11-24 16:00:00 12.1 17 Noroeste 22 Oeste 0 -- -- 71
2019-11-24 15:00:00 11.6 12 Noroeste 26 Oeste 0 -- -- 77
2019-11-24 14:00:00 11 16 Noroeste 26 Noroeste 0 -- -- 78
2019-11-24 13:00:00 10.3 17 Noroeste 28 Noroeste 0 -- -- 81
2019-11-24 12:00:00 9.3 18 Noroeste 25 Noroeste 0 -- -- 87
2019-11-24 11:00:00 8.5 11 Noroeste 24 Noroeste 0 -- -- 90
2019-11-24 10:00:00 7.7 13 Oeste 22 Noroeste 0 -- -- 93
2019-11-24 09:00:00 6.4 15 Noroeste 27 Noroeste 0 -- -- 97
2019-11-24 08:00:00 5.9 20 Noroeste 30 Noroeste 0 -- -- 97
2019-11-24 07:00:00 5.9 14 Noroeste 26 Noroeste 0 -- -- 97
2019-11-24 06:00:00 5.1 3 Oeste 11 Oeste 0 -- -- 97
2019-11-24 05:00:00 4.9 4 Oeste 21 Noroeste 0 -- -- 97
2019-11-24 04:00:00 5 14 Noroeste 23 Noroeste 0 -- -- 96
2019-11-24 03:00:00 5.1 14 Noroeste 25 Noroeste 0 -- -- 95
2019-11-24 02:00:00 5.3 12 Noroeste 30 Noroeste 0 -- -- 92
2019-11-24 01:00:00 5.9 21 Noroeste 32 Noroeste 0 -- -- 91
2019-11-24 00:00:00 6.3 22 Noroeste 33 Noroeste 0 -- -- 89
2019-11-23 23:00:00 6.1 11 Oeste 17 Oeste 0 -- -- 93
2019-11-23 22:00:00 6.8 10 Oeste 25 Noroeste 0 -- -- 89
2019-11-23 21:00:00 7.3 13 Oeste 23 Oeste 0 -- -- 87
2019-11-23 20:00:00 8 13 Oeste 27 Noroeste 0 -- -- 84
2019-11-23 19:00:00 8.7 19 Noroeste 27 Oeste 0 -- -- 81
2019-11-23 18:00:00 9.6 15 Noroeste 36 Noroeste 0 -- -- 80
2019-11-23 17:00:00 11 27 Noroeste 44 Noroeste 0 -- -- 71
2019-11-23 16:00:00 11.6 26 Noroeste 45 Noroeste 0 -- -- 69
2019-11-23 15:00:00 11.3 37 Noroeste 51 Oeste 0 -- -- 72
2019-11-23 14:00:00 10.8 37 Noroeste 49 Noroeste 0 -- -- 72
2019-11-23 13:00:00 10.9 37 Noroeste 51 Noroeste 0 -- -- 77
2019-11-23 12:00:00 10.1 39 Noroeste 58 Noroeste 0 -- -- 79
2019-11-23 11:00:00 9.4 40 Noroeste 57 Noroeste 0.2 -- -- 82
2019-11-23 10:00:00 8.4 34 Noroeste 49 Oeste 0 -- -- 85
2019-11-23 09:00:00 7.6 32 Noroeste 44 Noroeste 0 -- -- 89
2019-11-23 08:00:00 7.4 23 Oeste 46 Noroeste 0 -- -- 89
2019-11-23 07:00:00 7.8 25 Oeste 39 Noroeste 0 -- -- 88
2019-11-23 06:00:00 8.1 22 Noroeste 45 Noroeste 0 -- -- 90
2019-11-23 05:00:00 8.3 29 Oeste 49 Noroeste 0 -- -- 87
2019-11-23 04:00:00 8.3 41 Noroeste 71 Noroeste 0.4 -- -- 86
2019-11-23 03:00:00 9.1 25 Oeste 54 Oeste 0 -- -- 89
2019-11-23 02:00:00 9.5 34 Oeste 54 Oeste 0 -- -- 90
2019-11-23 01:00:00 9.7 23 Oeste 39 Oeste 0 -- -- 86
2019-11-23 00:00:00 9.8 23 Oeste 41 Oeste 0 -- -- 85
2019-11-22 23:00:00 9.9 27 Oeste 50 Oeste 0 -- -- 86
2019-11-22 22:00:00 10.4 33 Oeste 51 Oeste 0 -- -- 85
2019-11-22 21:00:00 10.8 24 Oeste 33 Oeste 0 -- -- 85
2019-11-22 20:00:00 11.1 17 Oeste 45 Oeste 0 -- -- 82
2019-11-22 19:00:00 11.7 31 Oeste 49 Oeste 0 -- -- 83
2019-11-22 18:00:00 12.9 23 Oeste 58 Oeste 0 -- -- 83
2019-11-22 17:00:00 14.1 36 Oeste 64 Oeste 5.4 -- -- 86
2019-11-22 16:00:00 13.1 13 Sudoeste 35 Sudoeste 5 -- -- 96
2019-11-22 15:00:00 13.3 22 Sudoeste 42 Sudoeste 3.2 -- -- 95
2019-11-22 14:00:00 13.2 26 Sudoeste 42 Sudoeste 0.6 -- -- 95
2019-11-22 13:00:00 12.6 17 Sur 43 Sudoeste 1.2 -- -- 95
2019-11-22 12:00:00 12.2 26 Sur 43 Sur 2.4 -- -- 96
2019-11-22 11:00:00 12.5 25 Sudoeste 44 Sur 0 -- -- 91
2019-11-22 10:00:00 11.8 16 Sur 31 Sudoeste 0 -- -- 93
2019-11-22 09:00:00 10.6 13 Sur 23 Sur 0 -- -- 95
2019-11-22 08:00:00 9.9 11 Sur 19 Sur 0.2 -- -- 95
2019-11-22 07:00:00 9.7 10 Sur 18 Sur 0.4 -- -- 95
2019-11-22 06:00:00 9.4 7 Sudeste 15 Sur 0 -- -- 95
2019-11-22 05:00:00 9.7 9 Sur 15 Sur 0 -- -- 95
2019-11-22 04:00:00 9.6 10 Sur 17 Sur 0 -- -- 96
2019-11-22 03:00:00 9.3 5 Sur 12 Sur 0 -- -- 96
2019-11-22 02:00:00 9.5 6 Sur 13 Sur 0 -- -- 96
2019-11-22 01:00:00 9.7 8 Sur 13 Sur 0 -- -- 97
2019-11-22 00:00:00 9.8 6 Sur 12 Sudeste 0 -- -- 97
2019-11-21 23:00:00 9.8 4 Sur 11 Sudoeste 0 -- -- 97
2019-11-21 22:00:00 9.7 7 Sur 12 Sur 0 -- -- 98
2019-11-21 21:00:00 9.5 8 Sur 10 Sur 0 -- -- 97
2019-11-21 20:00:00 10 6 Sur 10 Sur 0 -- -- 97
2019-11-21 19:00:00 10.4 8 Sur 12 Sur 0 -- -- 97
2019-11-21 18:00:00 11.1 6 Sudeste 13 Sudeste 0 -- -- 95
2019-11-21 17:00:00 11.4 6 Sur 10 Sudeste 0 -- -- 94
2019-11-21 16:00:00 11.4 4 Sudeste 10 Sur 0 -- -- 93
2019-11-21 15:00:00 11.2 6 Sudeste 10 Sudeste 0.2 -- -- 95
2019-11-21 14:00:00 10.4 3 Sur 10 Sur 1.2 -- -- 97
2019-11-21 13:00:00 9.9 9 Sur 13 Sur 1.4 -- -- 97
2019-11-21 12:00:00 9.7 8 Sur 17 Sur 0.8 -- -- 97
2019-11-21 11:00:00 9.3 9 Sur 15 Sur 0.6 -- -- 98
2019-11-21 10:00:00 8.8 5 Sur 10 Sur 0.6 -- -- 98
2019-11-21 09:00:00 8.2 6 Sudeste 13 Sur 0.2 -- -- 98
2019-11-21 08:00:00 8.2 10 Sur 15 Sur 0.4 -- -- 98
2019-11-21 07:00:00 8.1 8 Sur 13 Sur 0 -- -- 98
2019-11-21 06:00:00 7.7 11 Sur 15 Sudoeste 0 -- -- 98
2019-11-21 05:00:00 7.4 5 Sudeste 12 Sur 0 -- -- 98
2019-11-21 04:00:00 7.4 7 Sur 12 Sur 0 -- -- 98
2019-11-21 03:00:00 7.6 8 Sur 12 Sur 0 -- -- 98
2019-11-21 02:00:00 7.4 7 Sudeste 15 Sur 0 -- -- 98
2019-11-21 01:00:00 7.5 8 Sur 12 Sur 0 -- -- 98
2019-11-21 00:00:00 7.4 2 Este 16 Sur 0.2 -- -- 98
2019-11-20 23:00:00 7.2 9 Sur 14 Sur 0 -- -- 98
2019-11-20 22:00:00 7.1 9 Sur 15 Sur 0 -- -- 98
2019-11-20 21:00:00 7.3 8 Sur 18 Sur 0 -- -- 98
2019-11-20 20:00:00 7.4 13 Sur 17 Sur 0 -- -- 98
2019-11-20 19:00:00 7.7 10 Sur 18 Sur 0 -- -- 98
2019-11-20 18:00:00 8 12 Sur 21 Sudoeste 0 -- -- 97
2019-11-20 17:00:00 7.7 6 Sur 14 Sur 0.2 -- -- 98
2019-11-20 16:00:00 7 6 Sudeste 13 Sudeste 0 -- -- 97
2019-11-20 15:00:00 7 7 Sudeste 15 Sudeste 0.2 -- -- 97
2019-11-20 14:00:00 6.7 10 Sudeste 18 Sudeste 0.2 -- -- 96
2019-11-20 13:00:00 6.2 13 Sudeste 24 Sudeste 0 -- -- 97
2019-11-20 12:00:00 5.7 10 Sudeste 20 Sudeste 1 -- -- 97
2019-11-20 11:00:00 5.4 7 Sudeste 15 Sudeste 3.2 -- -- 96
2019-11-20 10:00:00 5 7 Sudeste 18 Sudeste 1.2 -- -- 95
2019-11-20 09:00:00 5.4 10 Sudeste 17 Sudeste 0.6 -- -- 93
2019-11-20 08:00:00 5.2 10 Sudeste 16 Sudeste 0 -- -- 92
2019-11-20 07:00:00 4.8 11 Sudeste 19 Sudeste 0 -- -- 93
2019-11-20 06:00:00 4.9 9 Sudeste 15 Sudeste 0 -- -- 92
2019-11-20 05:00:00 5 9 Sudeste 12 Sudeste 0 -- -- 91
2019-11-20 04:00:00 5.1 9 Sudeste 15 Sudeste 0 -- -- 91
2019-11-20 03:00:00 5.5 8 Sudeste 12 Sur 0 -- -- 90
2019-11-20 02:00:00 5.9 7 Sudeste 10 Sudeste 0 -- -- 88
2019-11-20 01:00:00 6.3 9 Sur 11 Sur 0 -- -- 87
2019-11-20 00:00:00 6.3 5 Sudeste 9 Sur 0 -- -- 87
2019-11-19 23:00:00 7.2 6 Sur 8 Sur 0 -- -- 84
2019-11-19 22:00:00 8 6 Sudeste 10 Sudeste 0 -- -- 80
2019-11-19 21:00:00 8.6 5 Sur 9 Sudeste 0 -- -- 77
2019-11-19 20:00:00 9.2 6 Sur 9 Sudeste 0 -- -- 69
2019-11-19 19:00:00 9.5 0 Calma 2 Oeste 0 -- -- 65
2019-11-19 18:00:00 10.3 2 Oeste 6 Oeste 0 -- -- 66
2019-11-19 17:00:00 11 4 Oeste 10 Oeste 0 -- -- 60
2019-11-19 16:00:00 11.5 6 Oeste 12 Noroeste 0 -- -- 59
2019-11-19 15:00:00 12.1 8 Noroeste 13 Noroeste 0 -- -- 58
2019-11-19 14:00:00 11.2 6 Sudoeste 15 Sudoeste 0 -- -- 65
2019-11-19 13:00:00 9.9 4 Sur 8 Este 0 -- -- 74
2019-11-19 12:00:00 8.6 4 Este 10 Sudeste 0 -- -- 81
2019-11-19 11:00:00 7 6 Sudeste 10 Sudeste 0 -- -- 81
2019-11-19 10:00:00 5.7 6 Sudeste 9 Sudeste 0 -- -- 87
2019-11-19 09:00:00 4.6 2 Sudeste 6 Sur 0 -- -- 89
2019-11-19 08:00:00 3.7 0 Calma 6 Sudeste 0 -- -- 89
2019-11-19 07:00:00 4.6 4 Sudeste 6 Sur 0 -- -- 86
2019-11-19 06:00:00 5 3 Sudoeste 5 Oeste 0 -- -- 84
2019-11-19 05:00:00 4.7 4 Oeste 7 Oeste 0 -- -- 84
2019-11-19 04:00:00 5 6 Oeste 8 Oeste 0 -- -- 83
2019-11-19 03:00:00 4.5 6 Oeste 10 Oeste 0 -- -- 84
2019-11-19 02:00:00 5.5 4 Oeste 8 Oeste 0 -- -- 81
2019-11-19 01:00:00 5.8 7 Oeste 12 Oeste 0 -- -- 82
2019-11-19 00:00:00 6.4 7 Oeste 10 Oeste 0 -- -- 80
2019-11-18 23:00:00 6.3 8 Oeste 13 Oeste 0 -- -- 82
2019-11-18 22:00:00 6.7 10 Oeste 13 Oeste 0 -- -- 82
2019-11-18 21:00:00 7 6 Oeste 10 Oeste 0 -- -- 82
2019-11-18 20:00:00 7 6 Oeste 10 Noroeste 0 -- -- 84
2019-11-18 19:00:00 7.9 7 Oeste 14 Noroeste 0 -- -- 83
2019-11-18 18:00:00 10 10 Noroeste 18 Oeste 0 -- -- 75
2019-11-18 17:00:00 11.6 8 Noroeste 16 Noroeste 0 -- -- 64
2019-11-18 16:00:00 11.9 9 Noroeste 18 Noroeste 0 -- -- 61
2019-11-18 15:00:00 11.2 6 Norte 15 Norte 0 -- -- 64
2019-11-18 14:00:00 10.8 9 Noroeste 24 Noroeste 0 -- -- 73
2019-11-18 13:00:00 9.7 12 Noroeste 20 Noroeste 0 -- -- 82
2019-11-18 12:00:00 8.2 10 Noroeste 21 Noroeste 0 -- -- 82
2019-11-18 11:00:00 6.8 17 Noroeste 28 Noroeste 0 -- -- 87
2019-11-18 10:00:00 5.3 17 Noroeste 23 Noroeste 0 -- -- 92
2019-11-18 09:00:00 3.8 13 Noroeste 26 Noroeste 0 -- -- 95
2019-11-18 08:00:00 3.6 21 Noroeste 35 Noroeste 0 -- -- 95
2019-11-18 07:00:00 4.1 25 Noroeste 44 Noroeste 0 -- -- 95
2019-11-18 06:00:00 4.6 24 Noroeste 35 Noroeste 0 -- -- 96
2019-11-18 05:00:00 5.3 21 Noroeste 34 Noroeste 0 -- -- 95
2019-11-18 04:00:00 6.5 24 Noroeste 43 Noroeste 0 -- -- 93
2019-11-18 03:00:00 8.3 23 Noroeste 42 Noroeste 0 -- -- 92
2019-11-18 02:00:00 9.7 29 Noroeste 41 Noroeste 0.2 -- -- 95
2019-11-18 01:00:00 10.2 22 Noroeste 46 Oeste 5.4 -- -- 96
2019-11-18 00:00:00 10.8 30 Oeste 45 Oeste 2.2 -- -- 95
2019-11-17 23:00:00 11 25 Oeste 37 Oeste 0.2 -- -- 95
2019-11-17 22:00:00 11 23 Oeste 37 Oeste 0.2 -- -- 95
2019-11-17 21:00:00 11 24 Oeste 41 Oeste 1.2 -- -- 94
2019-11-17 20:00:00 11.4 30 Oeste 42 Oeste 1.8 -- -- 92
2019-11-17 19:00:00 11.1 23 Oeste 33 Sudoeste 2 -- -- 96
2019-11-17 18:00:00 10.4 15 Sudoeste 28 Sudoeste 0.6 -- -- 95
2019-11-17 17:00:00 11.3 19 Sudoeste 29 Oeste 0 -- -- 92
2019-11-17 16:00:00 11.5 22 Oeste 31 Oeste 0 -- -- 92
2019-11-17 15:00:00 11.2 22 Oeste 39 Oeste 0.2 -- -- 93
2019-11-17 14:00:00 10.8 20 Sudoeste 35 Sudoeste 0 -- -- 92
2019-11-17 13:00:00 10 19 Sudoeste 35 Sudoeste 0 -- -- 96
2019-11-17 12:00:00 7.9 12 Sur 22 Sudoeste 0 -- -- 97
2019-11-17 11:00:00 5.4 8 Sudeste 18 Sudeste 0.2 -- -- 97
2019-11-17 10:00:00 4.4 12 Sudeste 19 Sur 0.4 -- -- 97
2019-11-17 09:00:00 3.9 10 Sudeste 15 Sur 0 -- -- 95
2019-11-17 08:00:00 3.7 11 Sur 16 Sur 0.2 -- -- 91
2019-11-17 07:00:00 5 5 Sudoeste 13 Sudoeste 0 -- -- 84
2019-11-17 06:00:00 4.7 8 Sudoeste 13 Sudoeste 0 -- -- 81
2019-11-17 05:00:00 3.9 11 Oeste 14 Oeste 0 -- -- 83
2019-11-17 04:00:00 3.5 7 Oeste 16 Oeste 0 -- -- 83
2019-11-17 03:00:00 3.6 11 Sudoeste 15 Sudoeste 0 -- -- 84
2019-11-17 02:00:00 2.5 8 Oeste 13 Oeste 0 -- -- 84
2019-11-17 01:00:00 3 7 Oeste 18 Oeste 0 -- -- 78
2019-11-17 00:00:00 3.7 10 Oeste 15 Oeste 0 -- -- 75
2019-11-16 23:00:00 4.3 9 Oeste 18 Oeste 0 -- -- 73
2019-11-16 22:00:00 4.8 12 Oeste 17 Oeste 0 -- -- 68
2019-11-16 21:00:00 5.1 12 Oeste 18 Oeste 0 -- -- 66
2019-11-16 20:00:00 6 10 Oeste 16 Oeste 0 -- -- 62
2019-11-16 19:00:00 6.7 11 Oeste 23 Noroeste 0 -- -- 59
2019-11-16 18:00:00 8.9 19 Noroeste 33 Noroeste 0 -- -- 50
2019-11-16 17:00:00 10.2 21 Noroeste 30 Noroeste 0 -- -- 46
2019-11-16 16:00:00 10.7 18 Oeste 30 Noroeste 0 -- -- 48
2019-11-16 15:00:00 10.7 16 Oeste 24 Oeste 0 -- -- 46
2019-11-16 14:00:00 10.1 12 Oeste 20 Noroeste 0 -- -- 52
2019-11-16 13:00:00 8.9 5 Oeste 13 Oeste 0 -- -- 59
2019-11-16 12:00:00 6.8 6 Noroeste 16 Noroeste 0 -- -- 69
2019-11-16 11:00:00 4.5 12 Noroeste 24 Noroeste 0 -- -- 81
2019-11-16 10:00:00 2.4 12 Noroeste 18 Noroeste 0 -- -- 89
2019-11-16 09:00:00 -0.6 10 Noroeste 17 Noroeste 0 -- -- 94
2019-11-16 08:00:00 -0.6 12 Noroeste 18 Noroeste 0 -- -- 94
2019-11-16 07:00:00 -0.2 9 Noroeste 18 Noroeste 0 -- -- 93
2019-11-16 06:00:00 -0.4 14 Noroeste 20 Oeste 0 -- -- 93
2019-11-16 05:00:00 -0.3 11 Noroeste 18 Oeste 0 -- -- 92
2019-11-16 04:00:00 0.1 12 Noroeste 17 Oeste 0 -- -- 90
2019-11-16 03:00:00 0.8 12 Oeste 17 Oeste 0 -- -- 86
2019-11-16 02:00:00 1.1 12 Oeste 17 Noroeste 0 -- -- 85
2019-11-16 01:00:00 1.7 9 Oeste 18 Oeste 0 -- -- 83
2019-11-16 00:00:00 2.4 10 Oeste 19 Noroeste 0 -- -- 81
2019-11-15 23:00:00 3.1 12 Oeste 22 Oeste 0 -- -- 78
2019-11-15 22:00:00 4.3 13 Oeste 22 Noroeste 0 -- -- 73
2019-11-15 21:00:00 5.8 10 Oeste 18 Noroeste 0 -- -- 67
2019-11-15 20:00:00 6.8 12 Noroeste 22 Oeste 0 -- -- 63
2019-11-15 19:00:00 7.5 14 Noroeste 23 Noroeste 0 -- -- 60
2019-11-15 18:00:00 8.5 17 Noroeste 31 Noroeste 0 -- -- 56
2019-11-15 17:00:00 8.7 18 Noroeste 33 Noroeste 0 -- -- 54
2019-11-15 16:00:00 9 21 Noroeste 36 Noroeste 0 -- -- 56
2019-11-15 15:00:00 7.9 23 Noroeste 34 Noroeste 0 -- -- 61
2019-11-15 14:00:00 7.8 23 Noroeste 35 Noroeste 0 -- -- 60
2019-11-15 13:00:00 6.6 22 Noroeste 39 Noroeste 0 -- -- 64
2019-11-15 12:00:00 6.5 26 Noroeste 44 Noroeste 0 -- -- 69
2019-11-15 11:00:00 6 32 Noroeste 46 Noroeste 0 -- -- 72
2019-11-15 10:00:00 4.6 23 Noroeste 36 Noroeste 0 -- -- 86
2019-11-15 09:00:00 2.5 22 Noroeste 33 Noroeste 0 -- -- 91
2019-11-15 08:00:00 1.8 21 Noroeste 30 Oeste 0 -- -- 92
2019-11-15 07:00:00 2.4 26 Noroeste 45 Noroeste 0 -- -- 91
2019-11-15 06:00:00 2.8 34 Noroeste 46 Noroeste 0 -- -- 91
2019-11-15 05:00:00 3.1 35 Noroeste 53 Noroeste 0 -- -- 89
2019-11-15 04:00:00 3.2 27 Noroeste 45 Oeste 0 -- -- 87
2019-11-15 03:00:00 3.7 30 Noroeste 46 Noroeste 0 -- -- 85
2019-11-15 02:00:00 4.4 32 Noroeste 48 Oeste 0 -- -- 81
2019-11-15 01:00:00 5.1 31 Noroeste 48 Oeste 0 -- -- 78
2019-11-15 00:00:00 5.7 27 Oeste 46 Oeste 0 -- -- 78
2019-11-14 23:00:00 5.8 26 Noroeste 54 Oeste 0 -- -- 81
2019-11-14 22:00:00 6.6 35 Oeste 53 Oeste 0 -- -- 84
2019-11-14 21:00:00 7.1 35 Oeste 51 Oeste 0 -- -- 82
2019-11-14 20:00:00 7.4 27 Oeste 50 Noroeste 0 -- -- 75
2019-11-14 19:00:00 8.1 30 Oeste 54 Noroeste 0 -- -- 74
2019-11-14 18:00:00 8.7 26 Oeste 51 Noroeste 0 -- -- 73
2019-11-14 17:00:00 9.5 45 Noroeste 61 Noroeste 0 -- -- 69
2019-11-14 16:00:00 10 34 Oeste 54 Oeste 0 -- -- 66
2019-11-14 15:00:00 10.3 39 Noroeste 58 Noroeste 0 -- -- 69
2019-11-14 14:00:00 9.8 36 Noroeste 58 Noroeste 0 -- -- 72
2019-11-14 13:00:00 8.7 31 Oeste 51 Noroeste 0 -- -- 85
2019-11-14 12:00:00 7.8 35 Noroeste 68 Noroeste 0.8 -- -- 92
2019-11-14 11:00:00 8.6 33 Oeste 53 Noroeste 0.4 -- -- 91
2019-11-14 10:00:00 9.3 28 Oeste 48 Oeste 0.8 -- -- 92
2019-11-14 09:00:00 9.3 29 Oeste 46 Oeste 0 -- -- 90
2019-11-14 08:00:00 9 32 Oeste 47 Sudoeste 0 -- -- 88
2019-11-14 07:00:00 8.5 30 Oeste 46 Oeste 0 -- -- 92
2019-11-14 06:00:00 8.6 26 Oeste 40 Oeste 0 -- -- 90
2019-11-14 05:00:00 8 27 Oeste 37 Oeste 0 -- -- 88
2019-11-14 04:00:00 7.4 18 Oeste 37 Oeste 0 -- -- 90
2019-11-14 03:00:00 7.5 19 Oeste 42 Noroeste 0 -- -- 89
2019-11-14 02:00:00 7.8 26 Noroeste 39 Noroeste 0 -- -- 89
2019-11-14 01:00:00 8.7 23 Oeste 36 Oeste 0 -- -- 92
2019-11-14 00:00:00 9.3 22 Oeste 33 Oeste 0 -- -- 93
2019-11-13 23:00:00 9.1 12 Oeste 22 Oeste 0 -- -- 92
2019-11-13 22:00:00 10 13 Oeste 26 Noroeste 0 -- -- 86
2019-11-13 21:00:00 10.7 8 Oeste 14 Oeste 0 -- -- 82
2019-11-13 20:00:00 11.9 10 Oeste 21 Oeste 0 -- -- 77
2019-11-13 19:00:00 13.6 13 Oeste 38 Noroeste 0 -- -- 71
2019-11-13 18:00:00 15.4 26 Noroeste 36 Noroeste 0 -- -- 68
2019-11-13 17:00:00 16.5 20 Noroeste 32 Noroeste 0 -- -- 62
2019-11-13 16:00:00 17.7 22 Oeste 35 Oeste 0 -- -- 61
2019-11-13 15:00:00 17.5 18 Noroeste 38 Noroeste 0 -- -- 61
2019-11-13 14:00:00 16.9 25 Noroeste 40 Noroeste 0 -- -- 63
2019-11-13 13:00:00 16 26 Noroeste 46 Noroeste 0 -- -- 68
2019-11-13 12:00:00 14.3 26 Oeste 48 Oeste 0 -- -- 76
2019-11-13 11:00:00 13.3 22 Oeste 45 Oeste 0 -- -- 92
2019-11-13 10:00:00 12.6 30 Oeste 43 Oeste 0 -- -- 93
2019-11-13 09:00:00 11.8 25 Oeste 41 Oeste 0 -- -- 92
2019-11-13 08:00:00 11.6 31 Oeste 46 Oeste 0 -- -- 93
2019-11-13 07:00:00 11.2 24 Oeste 45 Oeste 0 -- -- 93
2019-11-13 06:00:00 11.4 29 Oeste 50 Oeste 0.2 -- -- 90
2019-11-13 05:00:00 11.2 35 Oeste 48 Oeste 0 -- -- 88
2019-11-13 04:00:00 11.1 28 Oeste 40 Oeste 0 -- -- 87
2019-11-13 03:00:00 10.9 27 Oeste 41 Oeste 0 -- -- 91
2019-11-13 02:00:00 11.1 25 Oeste 37 Oeste 0 -- -- 87
2019-11-13 01:00:00 10.6 19 Oeste 27 Noroeste 0 -- -- 88
2019-11-13 00:00:00 10.5 17 Oeste 37 Oeste 0 -- -- 86
2019-11-12 23:00:00 10.9 24 Oeste 36 Oeste 0 -- -- 80
2019-11-12 22:00:00 10.1 14 Oeste 24 Oeste 0 -- -- 79
2019-11-12 21:00:00 10.5 20 Oeste 30 Oeste 0 -- -- 72
2019-11-12 20:00:00 10.5 18 Oeste 30 Noroeste 0 -- -- 66
2019-11-12 19:00:00 11.3 21 Noroeste 35 Noroeste 0 -- -- 60
2019-11-12 18:00:00 13.1 27 Noroeste 41 Noroeste 0 -- -- 51
2019-11-12 17:00:00 14.1 22 Noroeste 37 Noroeste 0 -- -- 47
2019-11-12 16:00:00 14.5 24 Noroeste 36 Noroeste 0 -- -- 44
2019-11-12 15:00:00 13.5 19 Noroeste 36 Noroeste 0 -- -- 50
2019-11-12 14:00:00 13.4 21 Noroeste 32 Noroeste 0 -- -- 52
2019-11-12 13:00:00 12.3 22 Noroeste 37 Noroeste 0 -- -- 58
2019-11-12 12:00:00 11.1 20 Noroeste 34 Noroeste 0 -- -- 69
2019-11-12 11:00:00 8.8 17 Noroeste 25 Noroeste 0 -- -- 85
2019-11-12 10:00:00 7 15 Noroeste 24 Noroeste 0 -- -- 98
2019-11-12 09:00:00 6.2 18 Noroeste 27 Noroeste 0 -- -- 98
2019-11-12 08:00:00 6.3 19 Noroeste 25 Noroeste 0 -- -- 98
2019-11-12 07:00:00 6.6 14 Noroeste 23 Noroeste 0 -- -- 98
2019-11-12 06:00:00 7 15 Noroeste 24 Noroeste 0 -- -- 98
2019-11-12 05:00:00 7 15 Noroeste 24 Noroeste 0 -- -- 98
2019-11-12 04:00:00 7 15 Noroeste 22 Noroeste 0 -- -- 97
2019-11-12 03:00:00 6.7 14 Noroeste 21 Noroeste 0 -- -- 96
2019-11-12 02:00:00 7 8 Oeste 17 Noroeste 0 -- -- 95
2019-11-12 01:00:00 7.8 13 Noroeste 18 Oeste 0 -- -- 95
2019-11-12 00:00:00 8.5 14 Noroeste 21 Noroeste 0 -- -- 94
2019-11-11 23:00:00 9.6 11 Oeste 21 Noroeste 0 -- -- 93
2019-11-11 22:00:00 11.4 17 Noroeste 30 Noroeste 0 -- -- 89
2019-11-11 21:00:00 12.2 8 Oeste 13 Noroeste 0 -- -- 93
2019-11-11 20:00:00 13 5 Noroeste 16 Noroeste 0 -- -- 91
2019-11-11 19:00:00 13.6 13 Noroeste 20 Noroeste 0 -- -- 89
2019-11-11 18:00:00 14.4 16 Noroeste 37 Noroeste 0 -- -- 81
2019-11-11 17:00:00 14.8 27 Noroeste 39 Noroeste 0 -- -- 81
2019-11-11 16:00:00 14.5 24 Noroeste 39 Noroeste 0 -- -- 85
2019-11-11 15:00:00 13.9 25 Noroeste 39 Noroeste 0 -- -- 86
2019-11-11 14:00:00 12.3 17 Oeste 28 Oeste 0 -- -- 95
2019-11-11 13:00:00 11.1 15 Noroeste 24 Noroeste 0 -- -- 96
2019-11-11 12:00:00 10.7 18 Noroeste 26 Noroeste 0 -- -- 95
2019-11-11 11:00:00 10.5 14 Oeste 24 Oeste 0 -- -- 91
2019-11-11 10:00:00 9.4 13 Oeste 20 Noroeste 0 -- -- 96
2019-11-11 09:00:00 8.6 14 Noroeste 24 Noroeste 0 -- -- 97
2019-11-11 08:00:00 8.2 14 Noroeste 23 Oeste 0 -- -- 97
2019-11-11 07:00:00 8.2 15 Noroeste 24 Noroeste 0 -- -- 96
2019-11-11 06:00:00 8.2 15 Noroeste 24 Noroeste 0 -- -- 96
2019-11-11 05:00:00 7.9 12 Noroeste 24 Noroeste 0 -- -- 96
2019-11-11 04:00:00 7.9 13 Noroeste 19 Noroeste 0 -- -- 96
2019-11-11 03:00:00 7.8 10 Noroeste 27 Noroeste 0 -- -- 95
2019-11-11 02:00:00 8 19 Noroeste 32 Noroeste 0 -- -- 94
2019-11-11 01:00:00 8.3 21 Noroeste 36 Noroeste 0 -- -- 91
2019-11-11 00:00:00 8.7 22 Noroeste 38 Noroeste 0 -- -- 87
2019-11-10 23:00:00 8.9 27 Noroeste 39 Noroeste 0 -- -- 84
2019-11-10 22:00:00 9.1 27 Noroeste 40 Noroeste 0 -- -- 78
2019-11-10 21:00:00 9.1 27 Noroeste 48 Noroeste 0 -- -- 80
2019-11-10 20:00:00 9.2 28 Noroeste 44 Noroeste 0 -- -- 81
2019-11-10 19:00:00 9.1 27 Noroeste 41 Noroeste 0 -- -- 78
2019-11-10 18:00:00 9.4 31 Noroeste 50 Noroeste 0 -- -- 72
2019-11-10 17:00:00 10 32 Noroeste 48 Noroeste 0 -- -- 65
2019-11-10 16:00:00 9 34 Noroeste 64 Noroeste 0 -- -- 73
2019-11-10 15:00:00 11.6 41 Noroeste 55 Noroeste 0 -- -- 50
2019-11-10 14:00:00 12.5 34 Noroeste 53 Noroeste 0 -- -- 43
2019-11-10 13:00:00 12 31 Noroeste 49 Noroeste 0 -- -- 47
2019-11-10 12:00:00 11.2 28 Noroeste 53 Noroeste 0 -- -- 58
2019-11-10 11:00:00 10.2 28 Noroeste 42 Noroeste 0 -- -- 68
2019-11-10 10:00:00 7.6 28 Noroeste 40 Noroeste 0 -- -- 86
2019-11-10 09:00:00 6.7 29 Noroeste 41 Noroeste 0 -- -- 93
2019-11-10 08:00:00 6.1 26 Noroeste 36 Noroeste 0 -- -- 95
2019-11-10 07:00:00 6.2 21 Noroeste 33 Noroeste 0 -- -- 95
2019-11-10 06:00:00 6.6 25 Noroeste 39 Noroeste 0 -- -- 95
2019-11-10 05:00:00 6.9 28 Noroeste 43 Noroeste 0 -- -- 92
2019-11-10 04:00:00 7.5 25 Noroeste 35 Noroeste 0 -- -- 91
2019-11-10 03:00:00 8.3 18 Noroeste 42 Noroeste 0 -- -- 92
2019-11-10 02:00:00 9.4 29 Noroeste 41 Noroeste 0 -- -- 92
2019-11-10 01:00:00 10.4 24 Noroeste 44 Noroeste 0 -- -- 91
2019-11-10 00:00:00 10.8 20 Oeste 31 Oeste 0 -- -- 92